New London, Ohio
Current Conditions -  °F | °C
As of 10:52 PM on Wednesday 17 Dec 2014 (Local Time) from KMFD Reporting Station
Overcast Overcast  
Wind Chill: 17°   Ceiling: 2600
Heat Index: 26°   Visibility: 10mi
Dew Point: 21°   Wind: 9mph
Humidity: 81%   Direction: 260°W
Pressure: 30.16"   Gusts: NA
Location:  41.09°N, 82.4°W
Report Text: KMFD 180352Z 26008KT 10SM SCT018 OVC026 M03/M06 A3016 RMK AO2 SLP229 T10331061
Loading
Personal Weather Stations






























Interactive Weather Map New forecast layout! Learn more

10-Day Weather Forecast

Advertisements
Track Severe Weather on mobile